Time;durP1;ratioP1;P1;durP2;ratioP2;P2;SDS_P1;SDS_P2;PMS_P1;PMS_P2;Temp;Humidity;BMP_temperature;BMP_pressure;BME280_temperature;BME280_humidity;BME280_pressure;Samples;Min_cycle;Max_cycle;Signal;HPM_P1;HPM_P2
2022/06/13 00:00:01;;;;;;;;;;;19.30;98.40;;;;;;5074018;28;19928;-72
2022/06/13 00:02:28;;;;;;;;;;;19.20;98.50;;;;;;5073796;28;19925;-72
2022/06/13 00:04:54;;;;;;;;;;;19.20;98.60;;;;;;5073752;28;20458;-72
2022/06/13 00:07:22;;;;;;;;;;;19.20;98.80;;;;;;5073728;28;19924;-72
2022/06/13 00:09:49;;;;;;;;;;;19.10;99.70;;;;;;5073593;28;19928;-72
2022/06/13 00:12:16;;;;;;;;;;;19.00;99.90;;;;;;5073805;28;19925;-72
2022/06/13 00:14:43;;;;;;;;;;;19.20;99.70;;;;;;5073936;28;19932;-72
2022/06/13 00:17:10;;;;;;;;;;;19.20;99.10;;;;;;5073592;28;19970;-72
2022/06/13 00:19:37;;;;;;;;;;;19.20;99.00;;;;;;5073465;28;19978;-71
2022/06/13 00:22:05;;;;;;;;;;;19.40;98.70;;;;;;5073592;28;19932;-71
2022/06/13 00:24:33;;;;;;;;;;;19.40;99.00;;;;;;5073389;28;20011;-71
2022/06/13 00:27:01;;;;;;;;;;;19.40;99.10;;;;;;5073168;28;19974;-72
2022/06/13 00:29:28;;;;;;;;;;;19.40;99.00;;;;;;5072756;28;19929;-71
2022/06/13 00:31:55;;;;;;;;;;;19.30;99.30;;;;;;5073219;28;19925;-72
2022/06/13 00:34:22;;;;;;;;;;;19.20;99.30;;;;;;5073269;28;20332;-71
2022/06/13 00:36:49;;;;;;;;;;;19.40;98.80;;;;;;5073267;28;19924;-72
2022/06/13 00:39:15;;;;;;;;;;;19.40;98.40;;;;;;5073037;28;19928;-72
2022/06/13 00:41:44;;;;;;;;;;;19.40;98.40;;;;;;5073069;28;19974;-72
2022/06/13 00:44:19;;;;;;;;;;;19.50;98.50;;;;;;5073030;28;19925;-72
2022/06/13 00:46:46;;;;;;;;;;;19.40;98.50;;;;;;5073120;28;19951;-72
2022/06/13 00:49:14;;;;;;;;;;;19.20;98.70;;;;;;5072697;28;20019;-72
2022/06/13 00:51:43;;;;;;;;;;;19.30;98.40;;;;;;5072843;28;19928;-72
2022/06/13 00:54:12;;;;;;;;;;;19.20;98.60;;;;;;5072873;28;19932;-73
2022/06/13 00:56:38;;;;;;;;;;;19.30;98.60;;;;;;5072573;28;19971;-73
2022/06/13 00:59:10;;;;;;;;;;;19.20;98.60;;;;;;5072744;28;19924;-73
2022/06/13 01:01:37;;;;;;;;;;;19.20;98.50;;;;;;5072821;28;19971;-73
2022/06/13 01:04:05;;;;;;;;;;;19.20;98.60;;;;;;5072676;28;19970;-73
2022/06/13 01:06:34;;;;;;;;;;;19.20;98.60;;;;;;5072601;28;19931;-73
2022/06/13 01:09:02;;;;;;;;;;;19.10;98.60;;;;;;5072480;28;20451;-73
2022/06/13 01:11:29;;;;;;;;;;;19.10;98.50;;;;;;5072836;28;19924;-73
2022/06/13 01:14:03;;;;;;;;;;;19.10;98.50;;;;;;5072463;28;19979;-73
2022/06/13 01:16:36;;;;;;;;;;;19.00;98.50;;;;;;5072351;28;19924;-73
2022/06/13 01:19:26;;;;;;;;;;;19.00;98.30;;;;;;5072422;28;20355;-73
2022/06/13 01:21:57;;;;;;;;;;;18.90;98.20;;;;;;5015698;28;20461;-73
2022/06/13 01:24:41;;;;;;;;;;;18.90;98.50;;;;;;5072565;28;20042;-73
2022/06/13 01:27:20;;;;;;;;;;;18.80;98.10;;;;;;5072499;28;19975;-72
2022/06/13 01:30:07;;;;;;;;;;;18.90;98.10;;;;;;5072148;28;19944;-73
2022/06/13 01:32:43;;;;;;;;;;;18.80;98.00;;;;;;5067230;28;19977;-73
2022/06/13 01:35:18;;;;;;;;;;;18.80;98.10;;;;;;5072302;28;19925;-73
2022/06/13 01:37:52;;;;;;;;;;;18.60;98.10;;;;;;5072340;28;19955;-73
2022/06/13 01:40:23;;;;;;;;;;;18.60;98.10;;;;;;5072089;28;20427;-73
2022/06/13 01:42:57;;;;;;;;;;;18.50;98.30;;;;;;5071570;28;20381;-73
2022/06/13 01:45:32;;;;;;;;;;;18.40;98.40;;;;;;5072141;28;19928;-73
2022/06/13 01:48:02;;;;;;;;;;;18.40;98.30;;;;;;5072454;28;19924;-73
2022/06/13 01:50:31;;;;;;;;;;;18.40;98.00;;;;;;5071814;28;19925;-73
2022/06/13 01:53:01;;;;;;;;;;;18.30;97.70;;;;;;5071778;28;19987;-73
2022/06/13 01:55:32;;;;;;;;;;;18.30;98.20;;;;;;5072165;28;19986;-73
2022/06/13 01:58:05;;;;;;;;;;;18.30;98.00;;;;;;5072057;28;19929;-73
2022/06/13 02:00:33;;;;;;;;;;;18.00;98.30;;;;;;5071870;28;19951;-73
2022/06/13 02:03:04;;;;;;;;;;;17.90;98.60;;;;;;5072031;28;19979;-73
2022/06/13 02:05:32;;;;;;;;;;;18.00;98.60;;;;;;5071689;28;19929;-73
2022/06/13 02:08:02;;;;;;;;;;;17.90;98.60;;;;;;5071822;28;19928;-73
2022/06/13 02:10:30;;;;;;;;;;;17.90;98.80;;;;;;5071776;28;19929;-73
2022/06/13 02:13:01;;;;;;;;;;;17.90;98.60;;;;;;5071768;28;19971;-73
2022/06/13 02:15:30;;;;;;;;;;;17.80;98.70;;;;;;5071824;28;19979;-73
2022/06/13 02:17:59;;;;;;;;;;;17.70;98.70;;;;;;5071843;28;19924;-73
2022/06/13 02:20:30;;;;;;;;;;;17.60;99.00;;;;;;5071697;28;20351;-73
2022/06/13 02:22:58;;;;;;;;;;;17.60;98.90;;;;;;5071839;28;19925;-73
2022/06/13 02:25:37;;;;;;;;;;;17.60;99.10;;;;;;5072531;28;19924;-73
2022/06/13 02:28:06;;;;;;;;;;;17.50;99.20;;;;;;5071676;28;19978;-73
2022/06/13 02:30:35;;;;;;;;;;;17.50;99.30;;;;;;5071560;28;20394;-73
2022/06/13 02:33:05;;;;;;;;;;;17.40;99.50;;;;;;5071851;28;19928;-73
2022/06/13 02:35:36;;;;;;;;;;;17.30;99.50;;;;;;5071637;28;20014;-73
2022/06/13 02:38:04;;;;;;;;;;;17.30;99.50;;;;;;5071636;28;20321;-73
2022/06/13 02:40:34;;;;;;;;;;;17.20;99.70;;;;;;5071643;28;19979;-73
2022/06/13 02:43:03;;;;;;;;;;;17.20;99.50;;;;;;5071517;28;19924;-73
2022/06/13 02:45:31;;;;;;;;;;;17.10;99.60;;;;;;5071314;28;19924;-73
2022/06/13 02:48:00;;;;;;;;;;;17.10;99.70;;;;;;5071911;28;19925;-73
2022/06/13 02:50:30;;;;;;;;;;;17.00;99.70;;;;;;5071527;28;19924;-73
2022/06/13 02:53:02;;;;;;;;;;;17.00;99.80;;;;;;5072522;28;20401;-73
2022/06/13 02:55:35;;;;;;;;;;;17.00;99.90;;;;;;5075246;28;19928;-73
2022/06/13 02:58:07;;;;;;;;;;;17.00;99.90;;;;;;5075566;28;19924;-73
2022/06/13 03:00:42;;;;;;;;;;;16.90;99.90;;;;;;5066879;28;19991;-73
2022/06/13 03:03:15;;;;;;;;;;;16.80;99.90;;;;;;5075175;28;19924;-73
2022/06/13 03:05:47;;;;;;;;;;;16.70;99.90;;;;;;5074864;28;19971;-73
2022/06/13 03:08:24;;;;;;;;;;;16.70;99.90;;;;;;5074910;28;19928;-73
2022/06/13 03:10:55;;;;;;;;;;;16.70;99.90;;;;;;5074847;28;20369;-73
2022/06/13 03:13:24;;;;;;;;;;;16.60;99.90;;;;;;5075111;28;19928;-73
2022/06/13 03:15:55;;;;;;;;;;;16.30;99.90;;;;;;5074523;28;19978;-73
2022/06/13 03:18:25;;;;;;;;;;;16.40;99.90;;;;;;5074912;28;20381;-73
2022/06/13 03:20:53;;;;;;;;;;;16.50;99.90;;;;;;5074784;28;19986;-73
2022/06/13 03:23:25;;;;;;;;;;;16.20;99.90;;;;;;5074702;28;19924;-73
2022/06/13 03:25:53;;;;;;;;;;;16.30;99.90;;;;;;5074434;28;20277;-73
2022/06/13 03:28:22;;;;;;;;;;;16.30;99.90;;;;;;5074464;28;19988;-73
2022/06/13 03:30:51;;;;;;;;;;;16.40;99.90;;;;;;5074513;28;20452;-73
2022/06/13 03:33:41;;;;;;;;;;;16.00;99.90;;;;;;5074650;28;20614;-73
2022/06/13 03:36:10;;;;;;;;;;;15.90;99.90;;;;;;5074620;28;19928;-71
2022/06/13 03:38:41;;;;;;;;;;;16.00;99.90;;;;;;5074807;28;19924;-71
2022/06/13 03:41:11;;;;;;;;;;;16.00;99.90;;;;;;5074401;28;19975;-71
2022/06/13 03:43:41;;;;;;;;;;;16.20;99.90;;;;;;5074504;28;19955;-73
2022/06/13 03:46:10;;;;;;;;;;;16.20;99.90;;;;;;5073911;28;20277;-71
2022/06/13 03:48:41;;;;;;;;;;;16.20;99.90;;;;;;5074035;28;19935;-71
2022/06/13 03:51:11;;;;;;;;;;;16.20;99.90;;;;;;5074031;28;19974;-73
2022/06/13 03:53:43;;;;;;;;;;;16.20;99.90;;;;;;5066409;28;19929;-71
2022/06/13 03:56:12;;;;;;;;;;;16.20;99.90;;;;;;5073946;28;19978;-73
2022/06/13 03:58:40;;;;;;;;;;;16.20;99.90;;;;;;5074092;28;19924;-73
2022/06/13 04:01:12;;;;;;;;;;;16.20;99.90;;;;;;5073786;28;20305;-73
2022/06/13 04:03:39;;;;;;;;;;;16.30;99.90;;;;;;5073688;28;19924;-73
2022/06/13 04:06:07;;;;;;;;;;;16.30;99.90;;;;;;5073330;28;19979;-73
2022/06/13 04:08:36;;;;;;;;;;;16.50;99.90;;;;;;5073805;28;20031;-73
2022/06/13 04:11:16;;;;;;;;;;;16.50;99.90;;;;;;5073787;28;19982;-73
2022/06/13 04:13:52;;;;;;;;;;;16.50;99.90;;;;;;5073719;28;19925;-73
2022/06/13 04:16:24;;;;;;;;;;;16.40;99.90;;;;;;5073368;28;19928;-73
2022/06/13 04:19:06;;;;;;;;;;;16.30;99.90;;;;;;5073453;28;19970;-73
2022/06/13 04:21:39;;;;;;;;;;;16.40;99.90;;;;;;5073684;28;19971;-73
2022/06/13 04:24:12;;;;;;;;;;;16.50;99.90;;;;;;5073732;28;20201;-73
2022/06/13 04:26:41;;;;;;;;;;;16.50;99.90;;;;;;5073231;28;19925;-72
2022/06/13 04:29:12;;;;;;;;;;;16.50;99.90;;;;;;5073297;28;19982;-72
2022/06/13 04:31:40;;;;;;;;;;;16.50;99.90;;;;;;5073275;28;19924;-72
2022/06/13 04:34:09;;;;;;;;;;;16.60;99.90;;;;;;5073156;28;20002;-72
2022/06/13 04:36:37;;;;;;;;;;;16.60;99.90;;;;;;5073112;28;19925;-71
2022/06/13 04:39:06;;;;;;;;;;;16.70;99.90;;;;;;5072828;28;20385;-72
2022/06/13 04:41:35;;;;;;;;;;;16.60;99.90;;;;;;5073020;28;19990;-72
2022/06/13 04:44:05;;;;;;;;;;;16.60;99.90;;;;;;5072953;28;19947;-71
2022/06/13 04:46:32;;;;;;;;;;;16.50;99.90;;;;;;5072691;28;19947;-72
2022/06/13 04:49:04;;;;;;;;;;;16.60;99.90;;;;;;5072806;28;19924;-72
2022/06/13 04:51:33;;;;;;;;;;;16.50;99.90;;;;;;5072983;28;20309;-72
2022/06/13 04:54:02;;;;;;;;;;;16.60;99.90;;;;;;5072835;28;20019;-72
2022/06/13 04:56:29;;;;;;;;;;;16.70;99.90;;;;;;5072448;28;19932;-72
2022/06/13 04:58:57;;;;;;;;;;;16.80;99.90;;;;;;5072534;28;19924;-72
2022/06/13 05:01:27;;;;;;;;;;;17.00;99.90;;;;;;5072702;28;20401;-72
2022/06/13 05:03:54;;;;;;;;;;;17.10;99.90;;;;;;5072669;28;19928;-72
2022/06/13 05:06:25;;;;;;;;;;;17.00;99.90;;;;;;5072184;28;20335;-73
2022/06/13 05:08:54;;;;;;;;;;;17.10;99.90;;;;;;5072315;28;19971;-72
2022/06/13 05:11:24;;;;;;;;;;;17.20;99.90;;;;;;5072558;28;20010;-72
2022/06/13 05:13:52;;;;;;;;;;;17.10;99.90;;;;;;5072316;28;19928;-72
2022/06/13 05:16:24;;;;;;;;;;;17.20;99.90;;;;;;5072965;28;19929;-72
2022/06/13 05:19:20;;;;;;;;;;;17.10;99.90;;;;;;5072272;28;19970;-72
2022/06/13 05:21:53;;;;;;;;;;;17.10;99.90;;;;;;5072341;28;19978;-72
2022/06/13 05:24:29;;;;;;;;;;;17.10;99.90;;;;;;5072178;28;20336;-72
2022/06/13 05:26:56;;;;;;;;;;;17.20;99.90;;;;;;5071954;28;19994;-72
2022/06/13 05:29:25;;;;;;;;;;;17.20;99.90;;;;;;5072210;28;20249;-72
2022/06/13 05:31:52;;;;;;;;;;;17.30;99.90;;;;;;5072408;28;19932;-72
2022/06/13 05:34:24;;;;;;;;;;;17.40;99.90;;;;;;5072032;28;19924;-72
2022/06/13 05:36:51;;;;;;;;;;;17.40;99.90;;;;;;5071924;28;20377;-72
2022/06/13 05:39:18;;;;;;;;;;;17.60;99.90;;;;;;5071948;28;19986;-72
2022/06/13 05:41:45;;;;;;;;;;;17.70;99.90;;;;;;5072011;28;20448;-72
2022/06/13 05:44:11;;;;;;;;;;;17.70;99.90;;;;;;5072032;28;19968;-72
2022/06/13 05:46:39;;;;;;;;;;;17.80;99.90;;;;;;5071922;28;20385;-72
2022/06/13 05:49:06;;;;;;;;;;;17.80;99.90;;;;;;5071954;28;19931;-72
2022/06/13 05:51:35;;;;;;;;;;;17.80;99.90;;;;;;5071885;28;19932;-72
2022/06/13 05:54:02;;;;;;;;;;;17.90;99.90;;;;;;5071743;28;19955;-72
2022/06/13 05:56:28;;;;;;;;;;;18.10;99.90;;;;;;5071839;28;19933;-72
2022/06/13 05:58:55;;;;;;;;;;;18.10;99.90;;;;;;5071641;28;19982;-72
2022/06/13 06:01:22;;;;;;;;;;;18.20;99.90;;;;;;5071795;28;20423;-72
2022/06/13 06:03:49;;;;;;;;;;;18.30;99.90;;;;;;5071802;28;19964;-72
2022/06/13 06:06:19;;;;;;;;;;;18.30;99.90;;;;;;5071533;28;20047;-72
2022/06/13 06:08:48;;;;;;;;;;;18.30;99.90;;;;;;5071675;28;20381;-72
2022/06/13 06:11:15;;;;;;;;;;;18.30;99.90;;;;;;5071885;28;19943;-72
2022/06/13 06:13:42;;;;;;;;;;;18.50;99.90;;;;;;5071840;28;19931;-72
2022/06/13 06:16:13;;;;;;;;;;;18.70;99.80;;;;;;5071488;28;19925;-72
2022/06/13 06:18:39;;;;;;;;;;;18.80;99.90;;;;;;5071810;28;19925;-72
2022/06/13 06:21:06;;;;;;;;;;;18.90;99.90;;;;;;5071781;28;19925;-71
2022/06/13 06:23:33;;;;;;;;;;;19.00;99.60;;;;;;5071658;28;19955;-72
2022/06/13 06:26:02;;;;;;;;;;;19.10;99.30;;;;;;5071339;28;19925;-72
2022/06/13 06:28:29;;;;;;;;;;;19.10;99.20;;;;;;5073840;28;20416;-73
2022/06/13 06:30:57;;;;;;;;;;;19.10;99.50;;;;;;5075407;28;19928;-72
2022/06/13 06:33:24;;;;;;;;;;;19.20;99.40;;;;;;5075444;28;19924;-73
2022/06/13 06:35:51;;;;;;;;;;;19.10;99.60;;;;;;5075025;28;20447;-73
2022/06/13 06:38:19;;;;;;;;;;;19.40;99.40;;;;;;5075487;28;20023;-73
2022/06/13 06:40:46;;;;;;;;;;;19.50;99.20;;;;;;5075320;28;19970;-73
2022/06/13 06:43:14;;;;;;;;;;;19.40;99.00;;;;;;5075554;28;20011;-73
2022/06/13 06:45:41;;;;;;;;;;;19.00;99.30;;;;;;5074927;28;19972;-73
2022/06/13 06:48:12;;;;;;;;;;;19.00;99.40;;;;;;5075321;28;19939;-73
2022/06/13 06:50:41;;;;;;;;;;;19.20;99.20;;;;;;5075098;28;19924;-73
2022/06/13 06:53:07;;;;;;;;;;;19.20;99.10;;;;;;5075451;28;20262;-73
2022/06/13 07:01:05;;;;;;;;;;;19.80;98.80;;;;;;5075236;28;19932;-73
2022/06/13 07:03:32;;;;;;;;;;;19.70;98.60;;;;;;5074958;28;19994;-73
2022/06/13 07:05:59;;;;;;;;;;;19.70;98.80;;;;;;5074672;28;19925;-73
2022/06/13 07:08:27;;;;;;;;;;;19.90;98.50;;;;;;5074936;28;19978;-73
2022/06/13 07:10:54;;;;;;;;;;;19.90;98.40;;;;;;5074961;28;19931;-73
2022/06/13 07:13:22;;;;;;;;;;;20.10;98.10;;;;;;5074679;28;19979;-73
2022/06/13 07:15:50;;;;;;;;;;;20.00;98.10;;;;;;5074539;28;20343;-73
2022/06/13 07:18:17;;;;;;;;;;;20.00;98.40;;;;;;5075032;28;19925;-73
2022/06/13 07:20:44;;;;;;;;;;;20.00;98.20;;;;;;5074529;28;19978;-73
2022/06/13 07:23:11;;;;;;;;;;;20.10;98.40;;;;;;5074799;28;19932;-73
2022/06/13 07:25:38;;;;;;;;;;;20.10;98.40;;;;;;5074315;28;19978;-73
2022/06/13 07:28:05;;;;;;;;;;;20.30;98.20;;;;;;5074481;28;19924;-73
2022/06/13 07:30:34;;;;;;;;;;;20.40;97.80;;;;;;5074280;28;19925;-72
2022/06/13 07:33:00;;;;;;;;;;;20.40;97.60;;;;;;5074355;28;19978;-72
2022/06/13 07:35:27;;;;;;;;;;;20.90;97.00;;;;;;5074080;28;19930;-73
2022/06/13 07:40:39;;;;;;;;;;;20.50;97.50;;;;;;5073273;28;19928;-71
2022/06/13 07:43:07;;;;;;;;;;;20.90;97.20;;;;;;5074538;28;20319;-72
2022/06/13 07:45:39;;;;;;;;;;;20.90;96.90;;;;;;5074179;28;19925;-71
2022/06/13 07:48:06;;;;;;;;;;;20.80;97.00;;;;;;5074091;28;19983;-71
2022/06/13 07:50:33;;;;;;;;;;;20.80;97.20;;;;;;5073919;28;20274;-72
2022/06/13 07:53:00;;;;;;;;;;;20.90;97.20;;;;;;5073888;28;20269;-72
2022/06/13 07:55:27;;;;;;;;;;;21.10;96.40;;;;;;5073841;28;19924;-72
2022/06/13 07:57:54;;;;;;;;;;;21.00;96.80;;;;;;5073959;28;19925;-72
2022/06/13 08:00:22;;;;;;;;;;;21.30;96.30;;;;;;5073940;28;19925;-72
2022/06/13 08:02:51;;;;;;;;;;;21.40;96.00;;;;;;5073812;28;20384;-72
2022/06/13 08:05:18;;;;;;;;;;;21.20;95.20;;;;;;5073618;28;19924;-72
2022/06/13 08:07:45;;;;;;;;;;;21.60;95.40;;;;;;5074105;28;19931;-72
2022/06/13 08:10:12;;;;;;;;;;;21.00;95.50;;;;;;5073606;28;19924;-72
2022/06/13 08:12:39;;;;;;;;;;;20.90;96.00;;;;;;5073682;28;19925;-72
2022/06/13 08:15:06;;;;;;;;;;;21.60;95.70;;;;;;5073540;28;19933;-72
2022/06/13 08:17:33;;;;;;;;;;;21.80;94.80;;;;;;5073628;28;19924;-72
2022/06/13 08:20:01;;;;;;;;;;;21.60;95.20;;;;;;5073376;28;19924;-72
2022/06/13 08:22:28;;;;;;;;;;;22.10;95.20;;;;;;5073588;28;19931;-72
2022/06/13 08:24:55;;;;;;;;;;;21.60;94.50;;;;;;5073259;28;19978;-72
2022/06/13 08:27:37;;;;;;;;;;;21.60;94.80;;;;;;5073141;28;20381;-72
2022/06/13 08:30:04;;;;;;;;;;;21.60;94.50;;;;;;5072720;28;19928;-72
2022/06/13 08:32:31;;;;;;;;;;;22.10;94.40;;;;;;5073140;28;19995;-72
2022/06/13 08:34:58;;;;;;;;;;;22.30;94.20;;;;;;5072893;28;19924;-72
2022/06/13 08:37:26;;;;;;;;;;;22.60;93.80;;;;;;5073428;28;20402;-72
2022/06/13 08:39:54;;;;;;;;;;;22.60;93.60;;;;;;5072922;28;20348;-72
2022/06/13 08:42:26;;;;;;;;;;;22.50;93.80;;;;;;5073000;28;19931;-72
2022/06/13 08:44:58;;;;;;;;;;;22.70;92.80;;;;;;5072823;28;19931;-72
2022/06/13 08:47:34;;;;;;;;;;;23.00;92.80;;;;;;5072938;28;19947;-72
2022/06/13 08:50:14;;;;;;;;;;;23.70;93.00;;;;;;5072579;28;20000;-74
2022/06/13 08:52:44;;;;;;;;;;;23.70;93.00;;;;;;5072975;28;20026;-72
2022/06/13 08:55:13;;;;;;;;;;;23.80;92.90;;;;;;5072728;28;19928;-72
2022/06/13 08:57:42;;;;;;;;;;;25.00;91.50;;;;;;5073061;28;20434;-73
2022/06/13 09:00:11;;;;;;;;;;;24.30;91.70;;;;;;5072767;28;19928;-72
2022/06/13 09:02:41;;;;;;;;;;;23.50;92.00;;;;;;5072787;28;19924;-72
2022/06/13 09:05:10;;;;;;;;;;;23.60;92.20;;;;;;5073040;28;20427;-72
2022/06/13 09:07:38;;;;;;;;;;;24.30;91.30;;;;;;5072653;28;19989;-72
2022/06/13 09:10:09;;;;;;;;;;;24.00;91.30;;;;;;5072477;28;19986;-73
2022/06/13 09:12:38;;;;;;;;;;;24.20;90.10;;;;;;5072611;28;20339;-72
2022/06/13 09:15:07;;;;;;;;;;;23.50;90.40;;;;;;5072472;28;19924;-72
2022/06/13 09:17:41;;;;;;;;;;;24.90;89.00;;;;;;5072538;28;19924;-72
2022/06/13 09:20:10;;;;;;;;;;;25.30;90.20;;;;;;5072432;28;20026;-72
2022/06/13 09:22:40;;;;;;;;;;;25.30;89.80;;;;;;5072361;28;19979;-73
2022/06/13 09:25:10;;;;;;;;;;;24.60;90.40;;;;;;5072422;28;19951;-73
2022/06/13 09:27:42;;;;;;;;;;;23.70;91.60;;;;;;5072417;28;19928;-74
2022/06/13 09:30:12;;;;;;;;;;;23.30;91.40;;;;;;5072561;28;20058;-74
2022/06/13 09:32:40;;;;;;;;;;;23.70;90.80;;;;;;5072255;28;19978;-74
2022/06/13 09:35:12;;;;;;;;;;;24.30;89.40;;;;;;5072155;28;19994;-74
2022/06/13 09:37:41;;;;;;;;;;;25.10;89.40;;;;;;5072277;28;19925;-74
2022/06/13 09:40:11;;;;;;;;;;;24.40;89.20;;;;;;5072037;28;19924;-74
2022/06/13 09:42:46;;;;;;;;;;;25.30;87.40;;;;;;5072114;28;19924;-74
2022/06/13 09:45:20;;;;;;;;;;;24.90;86.30;;;;;;5072028;28;20328;-74
2022/06/13 09:47:51;;;;;;;;;;;24.80;88.30;;;;;;5072326;28;19947;-74
2022/06/13 09:50:22;;;;;;;;;;;25.40;87.00;;;;;;5071870;28;19924;-74
2022/06/13 09:52:53;;;;;;;;;;;24.50;85.60;;;;;;5072127;28;19961;-74
2022/06/13 09:55:25;;;;;;;;;;;24.90;85.30;;;;;;5071778;28;19925;-73
2022/06/13 09:57:58;;;;;;;;;;;26.30;79.80;;;;;;5071925;28;19980;-74
2022/06/13 10:00:28;;;;;;;;;;;26.00;77.50;;;;;;5072051;28;19928;-73
2022/06/13 10:03:00;;;;;;;;;;;25.80;76.00;;;;;;5071309;28;19924;-74
2022/06/13 10:05:34;;;;;;;;;;;24.50;78.50;;;;;;5071753;28;20447;-74
2022/06/13 10:08:07;;;;;;;;;;;24.40;81.80;;;;;;5072012;28;19931;-74
2022/06/13 10:10:40;;;;;;;;;;;24.40;82.60;;;;;;5071805;28;19931;-74
2022/06/13 10:13:16;;;;;;;;;;;25.30;82.00;;;;;;5071990;28;20300;-74
2022/06/13 10:15:45;;;;;;;;;;;24.80;82.40;;;;;;5071674;28;19971;-74
2022/06/13 10:18:27;;;;;;;;;;;24.30;82.20;;;;;;5071596;28;19924;-73
2022/06/13 10:20:58;;;;;;;;;;;24.60;83.40;;;;;;5069249;28;19931;-74
2022/06/13 10:23:29;;;;;;;;;;;25.30;81.60;;;;;;5071901;28;20400;-74
2022/06/13 10:26:00;;;;;;;;;;;24.30;80.90;;;;;;5072273;28;19925;-74
2022/06/13 10:28:36;;;;;;;;;;;24.70;78.90;;;;;;5071654;28;19928;-74
2022/06/13 10:31:09;;;;;;;;;;;25.60;74.60;;;;;;5071555;28;19925;-74
2022/06/13 10:33:41;;;;;;;;;;;25.80;74.60;;;;;;5071803;28;19932;-74
2022/06/13 10:36:11;;;;;;;;;;;26.10;74.90;;;;;;5071405;28;19929;-74
2022/06/13 10:38:45;;;;;;;;;;;26.90;74.60;;;;;;5071898;28;20203;-72
2022/06/13 10:41:14;;;;;;;;;;;27.20;73.40;;;;;;5071606;28;19979;-72
2022/06/13 10:43:42;;;;;;;;;;;26.30;76.10;;;;;;5071870;28;19928;-72
2022/06/13 10:46:10;;;;;;;;;;;27.40;75.00;;;;;;5071534;28;19932;-73
2022/06/13 10:48:40;;;;;;;;;;;28.10;72.90;;;;;;5071466;28;19925;-72
2022/06/13 10:51:07;;;;;;;;;;;27.80;71.30;;;;;;5071524;28;19967;-73
2022/06/13 10:53:36;;;;;;;;;;;27.40;72.20;;;;;;5071765;28;19924;-72
2022/06/13 10:56:04;;;;;;;;;;;27.60;73.50;;;;;;5071131;28;20027;-72
2022/06/13 10:58:35;;;;;;;;;;;28.20;72.20;;;;;;5071283;28;19925;-73
2022/06/13 11:01:07;;;;;;;;;;;28.20;73.10;;;;;;5071236;28;20186;-73
2022/06/13 11:03:34;;;;;;;;;;;27.70;71.70;;;;;;5071887;28;19987;-73
2022/06/13 11:06:02;;;;;;;;;;;27.60;72.70;;;;;;5071302;28;19983;-72
2022/06/13 11:08:29;;;;;;;;;;;26.80;72.50;;;;;;5071195;28;19932;-72
2022/06/13 11:10:57;;;;;;;;;;;27.70;71.70;;;;;;5071011;28;19928;-72
2022/06/13 11:13:29;;;;;;;;;;;28.30;72.00;;;;;;5071613;28;20373;-73
2022/06/13 11:24:18;;;;;;;;;;;28.70;70.30;;;;;;5074944;28;19927;-73
2022/06/13 11:29:31;;;;;;;;;;;29.00;73.60;;;;;;5074537;28;20055;-73
2022/06/13 11:32:01;;;;;;;;;;;29.90;70.70;;;;;;5074573;28;19978;-73
2022/06/13 11:34:32;;;;;;;;;;;30.00;69.40;;;;;;5074517;28;19929;-73
2022/06/13 11:37:01;;;;;;;;;;;28.50;69.80;;;;;;5074323;28;20403;-73
2022/06/13 11:39:33;;;;;;;;;;;29.50;71.80;;;;;;5074322;28;19933;-73
2022/06/13 11:42:00;;;;;;;;;;;30.50;69.90;;;;;;5074479;28;19924;-73
2022/06/13 11:44:27;;;;;;;;;;;29.20;70.60;;;;;;5074254;28;19924;-73
2022/06/13 11:46:58;;;;;;;;;;;28.70;72.50;;;;;;5074527;28;20351;-73
2022/06/13 11:49:30;;;;;;;;;;;27.80;72.90;;;;;;5073972;28;20377;-73
2022/06/13 11:51:58;;;;;;;;;;;27.10;73.80;;;;;;5074545;28;19967;-73
2022/06/13 11:54:28;;;;;;;;;;;27.00;74.60;;;;;;5074140;28;20304;-73
2022/06/13 11:57:13;;;;;;;;;;;26.70;75.00;;;;;;5074025;28;19932;-73
2022/06/13 11:59:44;;;;;;;;;;;26.90;73.90;;;;;;5074256;28;19924;-74
2022/06/13 12:02:16;;;;;;;;;;;26.60;76.30;;;;;;5074064;28;20011;-73
2022/06/13 12:04:45;;;;;;;;;;;25.90;77.60;;;;;;5074259;28;20437;-73
2022/06/13 12:07:21;;;;;;;;;;;25.60;77.00;;;;;;5073711;28;20392;-72
2022/06/13 12:09:52;;;;;;;;;;;25.40;78.90;;;;;;5073852;28;19926;-73
2022/06/13 12:12:18;;;;;;;;;;;27.60;75.60;;;;;;5073911;28;19936;-73
2022/06/13 12:14:45;;;;;;;;;;;27.90;73.20;;;;;;5073709;28;19924;-73
2022/06/13 12:17:17;;;;;;;;;;;26.20;76.80;;;;;;5073600;28;20292;-73
2022/06/13 12:19:50;;;;;;;;;;;27.60;74.40;;;;;;5073434;28;19924;-73
2022/06/13 12:22:19;;;;;;;;;;;27.40;73.80;;;;;;5073988;28;19998;-73
2022/06/13 12:24:54;;;;;;;;;;;25.60;76.30;;;;;;5073651;28;19947;-73
2022/06/13 12:27:24;;;;;;;;;;;24.90;78.40;;;;;;5073303;28;19986;-73
2022/06/13 12:30:04;;;;;;;;;;;25.40;76.90;;;;;;5073360;28;19928;-73
2022/06/13 12:32:31;;;;;;;;;;;26.50;76.30;;;;;;5073462;28;19931;-73
2022/06/13 12:35:09;;;;;;;;;;;27.10;75.50;;;;;;5073274;28;19928;-74
2022/06/13 12:37:40;;;;;;;;;;;26.20;75.80;;;;;;5073222;28;19930;-74
2022/06/13 12:40:19;;;;;;;;;;;26.60;75.90;;;;;;5072286;28;20222;-74
2022/06/13 12:43:07;;;;;;;;;;;26.70;76.00;;;;;;5073016;28;19936;-74
2022/06/13 12:45:48;;;;;;;;;;;26.30;77.10;;;;;;5073252;28;19972;-74
2022/06/13 12:48:23;;;;;;;;;;;27.30;74.00;;;;;;5072916;28;19968;-74
2022/06/13 12:50:55;;;;;;;;;;;26.30;77.10;;;;;;5072883;28;19954;-74
2022/06/13 12:53:35;;;;;;;;;;;25.00;77.60;;;;;;5073436;28;20027;-74
2022/06/13 12:56:08;;;;;;;;;;;24.40;80.40;;;;;;5072960;28;20022;-74
2022/06/13 12:58:40;;;;;;;;;;;25.00;80.60;;;;;;5072773;28;20392;-74
2022/06/13 13:01:11;;;;;;;;;;;25.30;79.30;;;;;;5072713;28;19924;-73
2022/06/13 13:03:48;;;;;;;;;;;26.60;77.90;;;;;;5072837;28;20195;-73
2022/06/13 13:06:21;;;;;;;;;;;26.40;78.20;;;;;;5072634;28;20397;-73
2022/06/13 13:08:54;;;;;;;;;;;26.00;78.00;;;;;;5072665;28;19975;-73
2022/06/13 13:11:31;;;;;;;;;;;25.90;78.10;;;;;;5072680;28;19924;-73
2022/06/13 13:13:59;;;;;;;;;;;25.40;79.40;;;;;;5072669;28;19925;-73
2022/06/13 13:16:31;;;;;;;;;;;24.90;81.30;;;;;;5072593;28;19978;-73
2022/06/13 13:19:07;;;;;;;;;;;24.50;81.20;;;;;;5072443;28;19963;-73
2022/06/13 13:21:38;;;;;;;;;;;24.90;80.80;;;;;;5072490;28;19935;-73
2022/06/13 13:24:13;;;;;;;;;;;25.90;78.70;;;;;;5072502;28;20615;-72
2022/06/13 13:26:47;;;;;;;;;;;25.90;79.80;;;;;;5072213;28;20023;-73
2022/06/13 13:29:19;;;;;;;;;;;27.10;77.50;;;;;;5072459;28;19924;-74
2022/06/13 13:31:48;;;;;;;;;;;25.80;79.20;;;;;;5072606;28;19932;-72
2022/06/13 13:34:28;;;;;;;;;;;25.30;80.70;;;;;;5072432;28;20025;-72
2022/06/13 13:37:01;;;;;;;;;;;24.10;82.30;;;;;;5071308;28;19930;-72
2022/06/13 13:39:33;;;;;;;;;;;24.40;82.20;;;;;;5072289;28;19978;-73
2022/06/13 13:42:02;;;;;;;;;;;24.80;81.70;;;;;;5072389;28;19970;-73
2022/06/13 13:44:32;;;;;;;;;;;24.90;82.20;;;;;;5072165;28;19982;-73
2022/06/13 13:47:01;;;;;;;;;;;25.90;82.10;;;;;;5072117;28;20455;-73
2022/06/13 13:49:31;;;;;;;;;;;25.50;82.00;;;;;;5072157;28;20074;-73
2022/06/13 13:52:02;;;;;;;;;;;25.20;83.50;;;;;;5072015;28;19932;-73
2022/06/13 13:54:33;;;;;;;;;;;24.90;84.50;;;;;;5072034;28;20273;-73
2022/06/13 13:57:02;;;;;;;;;;;24.60;85.30;;;;;;5071824;28;20039;-73
2022/06/13 13:59:31;;;;;;;;;;;25.50;83.20;;;;;;5071826;28;19951;-73
2022/06/13 14:02:02;;;;;;;;;;;26.20;83.10;;;;;;5072054;28;20374;-73
2022/06/13 14:04:45;;;;;;;;;;;25.90;81.50;;;;;;5072210;28;19929;-74
2022/06/13 14:07:36;;;;;;;;;;;26.40;81.60;;;;;;5071844;28;19947;-74
2022/06/13 14:10:05;;;;;;;;;;;26.60;81.40;;;;;;5056231;28;19925;-74
2022/06/13 14:12:32;;;;;;;;;;;26.60;80.70;;;;;;5071817;28;19979;-74
2022/06/13 14:15:16;;;;;;;;;;;26.40;79.90;;;;;;5071796;28;19929;-74
2022/06/13 14:17:47;;;;;;;;;;;26.70;77.30;;;;;;5071680;28;19924;-74
2022/06/13 14:20:20;;;;;;;;;;;27.20;76.60;;;;;;5071709;28;19924;-74
2022/06/13 14:22:50;;;;;;;;;;;27.40;76.00;;;;;;5071628;28;19932;-74
2022/06/13 14:25:22;;;;;;;;;;;27.20;75.60;;;;;;5071573;28;20463;-74
2022/06/13 14:27:54;;;;;;;;;;;27.10;75.90;;;;;;5071796;28;19929;-74
2022/06/13 14:33:07;;;;;;;;;;;27.90;73.80;;;;;;5071647;28;20021;-74
2022/06/13 14:36:00;;;;;;;;;;;27.20;72.00;;;;;;5071599;28;19978;-74
2022/06/13 14:38:44;;;;;;;;;;;26.50;73.30;;;;;;5035573;28;20015;-74
2022/06/13 14:41:18;;;;;;;;;;;26.10;74.30;;;;;;5071530;28;20327;-74
2022/06/13 14:43:51;;;;;;;;;;;25.60;75.80;;;;;;5071659;28;19947;-74
2022/06/13 14:46:32;;;;;;;;;;;25.70;74.70;;;;;;5071708;28;19925;-73
2022/06/13 14:49:03;;;;;;;;;;;26.10;74.80;;;;;;5072733;28;19928;-73
2022/06/13 14:51:31;;;;;;;;;;;26.60;73.90;;;;;;5075204;28;19932;-73
2022/06/13 14:53:59;;;;;;;;;;;25.30;75.10;;;;;;5075168;28;20388;-73
2022/06/13 14:56:38;;;;;;;;;;;25.30;74.30;;;;;;5074950;28;19932;-73